createdAt,value
2023-04-05T00:02:18.840Z,100071.25
2023-04-05T00:04:50.646Z,100080.00
2023-04-05T00:07:19.216Z,100071.50
2023-04-05T00:09:46.360Z,100062.56
2023-04-05T00:12:13.319Z,100066.72
2023-04-05T00:14:39.923Z,100061.28
2023-04-05T00:17:07.417Z,100052.06
2023-04-05T00:19:36.636Z,100047.19
2023-04-05T00:22:03.754Z,100049.06
2023-04-05T00:24:31.012Z,100043.72
2023-04-05T00:26:57.557Z,100041.75
2023-04-05T00:29:24.124Z,100046.13
2023-04-05T00:31:50.895Z,100039.84
2023-04-05T00:34:17.654Z,100044.28
2023-04-05T00:36:44.194Z,100039.41
2023-04-05T00:39:10.769Z,100035.53
2023-04-05T00:41:37.379Z,100023.56
2023-04-05T00:44:04.098Z,100035.50
2023-04-05T00:46:34.599Z,100039.22
2023-04-05T00:49:01.245Z,100038.06
2023-04-05T00:51:27.795Z,100044.31
2023-04-05T00:53:55.137Z,100050.75
2023-04-05T00:56:22.960Z,100056.44
2023-04-05T00:58:52.217Z,100068.78
2023-04-05T01:01:22.426Z,100054.28
2023-04-05T01:03:55.542Z,100053.78
2023-04-05T01:07:00.540Z,100047.72
2023-04-05T01:09:54.700Z,100045.72
2023-04-05T01:12:24.130Z,100049.88
2023-04-05T01:14:53.414Z,100041.06
2023-04-05T01:17:22.781Z,100035.53
2023-04-05T01:19:59.073Z,100036.78
2023-04-05T01:22:54.577Z,100030.25
2023-04-05T01:25:56.838Z,100031.31
2023-04-05T01:28:44.551Z,100028.25
2023-04-05T01:31:29.385Z,100025.47
2023-04-05T01:34:17.749Z,100025.09
2023-04-05T01:36:54.858Z,100022.66
2023-04-05T01:39:23.331Z,100024.16
2023-04-05T01:41:50.176Z,100033.00
2023-04-05T01:44:16.806Z,100028.13
2023-04-05T01:46:43.405Z,100024.88
2023-04-05T01:49:10.025Z,100022.81
2023-04-05T01:51:36.565Z,100015.50
2023-04-05T01:54:03.082Z,100021.63
2023-04-05T01:56:29.656Z,100022.66
2023-04-05T01:58:56.534Z,100030.25
2023-04-05T02:01:23.150Z,100024.34
2023-04-05T02:03:49.928Z,100024.00
2023-04-05T02:06:16.616Z,100014.00
2023-04-05T02:08:43.176Z,100015.25
2023-04-05T02:11:10.010Z,100010.75
2023-04-05T02:13:36.612Z,100011.53
2023-04-05T02:16:03.299Z,100009.91
2023-04-05T02:18:33.007Z,100012.00
2023-04-05T02:21:08.047Z,100002.63
2023-04-05T02:23:35.040Z,100007.94
2023-04-05T02:26:01.574Z,100006.31
2023-04-05T02:28:28.335Z,100007.75
2023-04-05T02:30:55.533Z,100008.59
2023-04-05T02:33:22.888Z,100013.31
2023-04-05T02:35:51.753Z,100003.72
2023-04-05T02:38:18.828Z,100006.81
2023-04-05T02:40:49.463Z,99999.88
2023-04-05T02:43:16.581Z,99993.72
2023-04-05T02:45:44.981Z,99992.91
2023-04-05T02:48:13.299Z,99999.47
2023-04-05T02:50:40.045Z,99998.06
2023-04-05T02:53:06.805Z,99992.97
2023-04-05T02:55:34.143Z,99997.47
2023-04-05T02:58:01.232Z,99990.53
2023-04-05T03:00:28.215Z,99987.88
2023-04-05T03:02:56.636Z,99985.66
2023-04-05T03:05:23.317Z,99992.44
2023-04-05T03:07:52.264Z,99991.84
2023-04-05T03:10:22.572Z,99991.25
2023-04-05T03:12:51.434Z,99999.69
2023-04-05T03:15:17.956Z,100005.44
2023-04-05T03:17:44.559Z,100003.00
2023-04-05T03:20:12.163Z,99995.22
2023-04-05T03:22:38.763Z,99989.09
2023-04-05T03:25:06.038Z,99991.97
2023-04-05T03:27:32.798Z,99991.63
2023-04-05T03:29:59.302Z,99992.84
2023-04-05T03:32:25.930Z,99994.31
2023-04-05T03:34:52.502Z,100001.72
2023-04-05T03:37:19.501Z,100006.44
2023-04-05T03:39:46.214Z,100004.78
2023-04-05T03:42:12.750Z,100004.19
2023-04-05T03:44:39.284Z,100002.78
2023-04-05T03:47:05.849Z,100005.47
2023-04-05T03:49:32.372Z,100005.66
2023-04-05T03:51:58.914Z,99994.66
2023-04-05T03:54:25.439Z,99997.53
2023-04-05T03:56:52.052Z,100009.00
2023-04-05T03:59:18.687Z,100012.44
2023-04-05T04:01:45.373Z,99999.16
2023-04-05T04:04:13.624Z,100001.22
2023-04-05T04:06:40.399Z,100007.56
2023-04-05T04:09:06.961Z,100005.34
2023-04-05T04:11:33.506Z,100007.41
2023-04-05T04:14:00.122Z,100009.47
2023-04-05T04:16:28.675Z,100005.19
2023-04-05T04:18:55.854Z,100001.50
2023-04-05T04:21:25.028Z,100001.25
2023-04-05T04:23:52.217Z,100004.94
2023-04-05T04:26:29.224Z,100001.50
2023-04-05T04:28:56.452Z,100000.91
2023-04-05T04:31:23.118Z,100003.97
2023-04-05T04:33:50.495Z,100002.94
2023-04-05T04:36:18.184Z,99997.00
2023-04-05T04:38:45.810Z,99996.41
2023-04-05T04:41:13.166Z,99999.31
2023-04-05T04:43:43.908Z,99997.88
2023-04-05T04:46:15.395Z,99998.09
2023-04-05T04:48:42.410Z,100008.72
2023-04-05T04:51:09.263Z,100000.16
2023-04-05T04:53:36.248Z,100005.25
2023-04-05T04:56:06.583Z,99998.47
2023-04-05T04:58:33.140Z,99996.88
2023-04-05T05:01:00.059Z,99990.34
2023-04-05T05:03:26.877Z,99989.13
2023-04-05T05:05:53.777Z,99984.59
2023-04-05T05:08:21.563Z,99972.03
2023-04-05T05:10:52.940Z,99985.88
2023-04-05T05:13:19.752Z,99987.53
2023-04-05T05:15:46.774Z,99988.44
2023-04-05T05:18:13.301Z,99988.28
2023-04-05T05:20:40.225Z,99991.34
2023-04-05T05:23:07.128Z,99997.38
2023-04-05T05:25:33.714Z,100000.91
2023-04-05T05:28:00.335Z,100008.00
2023-04-05T05:30:28.461Z,100002.84
2023-04-05T05:32:55.124Z,100006.22
2023-04-05T05:35:21.771Z,100010.22
2023-04-05T05:37:48.320Z,100010.28
2023-04-05T05:40:16.411Z,100010.94
2023-04-05T05:42:43.071Z,100002.81
2023-04-05T05:45:10.294Z,100005.47
2023-04-05T05:47:37.043Z,99999.53
2023-04-05T05:50:04.229Z,99999.53
2023-04-05T05:52:31.158Z,100001.63
2023-04-05T05:54:57.737Z,100002.06
2023-04-05T05:57:24.298Z,99997.53
2023-04-05T05:59:51.047Z,100000.00
2023-04-05T06:02:17.653Z,100007.97
2023-04-05T06:04:45.544Z,100009.41
2023-04-05T06:07:12.489Z,100005.91
2023-04-05T06:09:39.037Z,100003.63
2023-04-05T06:12:05.801Z,100010.94
2023-04-05T06:14:32.496Z,100013.19
2023-04-05T06:16:59.106Z,100008.00
2023-04-05T06:19:25.937Z,100010.81
2023-04-05T06:21:52.536Z,100012.00
2023-04-05T06:24:19.116Z,100008.44
2023-04-05T06:26:45.719Z,100011.88
2023-04-05T06:29:12.275Z,100010.75
2023-04-05T06:31:38.912Z,100008.59
2023-04-05T06:34:05.733Z,100005.78
2023-04-05T06:36:32.536Z,100008.28
2023-04-05T06:38:59.636Z,100003.00
2023-04-05T06:41:27.710Z,99998.31
2023-04-05T07:27:17.712Z,99985.28
2023-04-05T07:29:47.150Z,99987.06
2023-04-05T07:32:14.973Z,99984.97
2023-04-05T07:34:41.742Z,99980.25
2023-04-05T07:37:08.713Z,99983.00
2023-04-05T07:39:35.811Z,99981.03
2023-04-05T07:42:02.413Z,99980.63
2023-04-05T07:44:29.084Z,99976.94
2023-04-05T07:46:55.810Z,99984.59
2023-04-05T07:49:27.680Z,99980.09
2023-04-05T07:51:56.437Z,99978.31
2023-04-05T07:54:23.981Z,99978.66
2023-04-05T07:56:51.792Z,99976.03
2023-04-05T07:59:18.386Z,99980.72
2023-04-05T08:01:44.993Z,99979.72
2023-04-05T08:04:12.676Z,99977.69
2023-04-05T08:06:39.283Z,99961.69
2023-04-05T08:09:06.493Z,99977.75
2023-04-05T08:11:33.295Z,99979.44
2023-04-05T08:14:00.128Z,99974.78
2023-04-05T08:16:27.373Z,99971.38
2023-04-05T08:18:53.949Z,99965.59
2023-04-05T08:21:20.824Z,99970.28
2023-04-05T08:23:47.472Z,99966.03
2023-04-05T08:26:14.501Z,99965.28
2023-04-05T08:28:41.164Z,99973.09
2023-04-05T08:31:07.676Z,99962.81
2023-04-05T08:33:34.315Z,99955.59
2023-04-05T08:36:05.374Z,99965.56
2023-04-05T08:38:31.851Z,99973.44
2023-04-05T08:41:07.798Z,99967.88
2023-04-05T08:43:40.688Z,99969.56
2023-04-05T08:46:14.816Z,99962.41
2023-04-05T08:48:41.589Z,99961.47
2023-04-05T08:51:09.364Z,99960.75
2023-04-05T08:53:36.324Z,99955.72
2023-04-05T08:56:04.246Z,99957.88
2023-04-05T08:58:34.261Z,99962.75
2023-04-05T09:01:01.515Z,99959.88
2023-04-05T09:03:36.804Z,99964.22
2023-04-05T09:06:07.682Z,99955.16
2023-04-05T09:08:34.474Z,99958.19
2023-04-05T09:11:01.062Z,99953.91
2023-04-05T09:13:27.590Z,99953.94
2023-04-05T09:15:54.662Z,99954.53
2023-04-05T09:18:26.826Z,99944.88
2023-04-05T09:21:03.897Z,99948.13
2023-04-05T09:23:30.764Z,99948.19
2023-04-05T09:25:57.374Z,99943.38
2023-04-05T09:28:24.141Z,99957.38
2023-04-05T09:30:50.834Z,99953.59
2023-04-05T09:33:20.998Z,99950.38
2023-04-05T09:35:51.400Z,99949.59
2023-04-05T09:38:17.998Z,99951.72
2023-04-05T09:40:45.734Z,99942.84
2023-04-05T09:43:33.029Z,99941.75
2023-04-05T09:46:00.305Z,99942.84
2023-04-05T09:48:46.153Z,99943.94
2023-04-05T09:51:13.501Z,99936.34
2023-04-05T09:54:06.093Z,99936.91
2023-04-05T09:56:38.523Z,99929.53
2023-04-05T09:59:13.052Z,99932.19
2023-04-05T10:01:43.963Z,99933.22
2023-04-05T10:04:11.099Z,99925.41
2023-04-05T10:06:42.759Z,99926.47
2023-04-05T10:09:11.146Z,99932.91
2023-04-05T10:11:38.784Z,99925.59
2023-04-05T10:14:07.719Z,99925.88
2023-04-05T10:16:45.041Z,99922.69
2023-04-05T10:19:21.123Z,99928.38
2023-04-05T10:21:48.139Z,99924.31
2023-04-05T10:24:36.816Z,99911.88
2023-04-05T10:27:06.674Z,99917.50
2023-04-05T10:29:47.361Z,99916.13
2023-04-05T10:32:31.632Z,99919.31
2023-04-05T10:35:06.072Z,99917.09
2023-04-05T10:37:48.390Z,99905.22
2023-04-05T10:40:19.173Z,99906.16
2023-04-05T10:42:47.717Z,99902.25
2023-04-05T10:45:19.498Z,99900.03
2023-04-05T10:48:19.035Z,99897.16
2023-04-05T10:50:48.435Z,99894.59
2023-04-05T10:53:16.923Z,99897.47
2023-04-05T10:55:47.120Z,99896.38
2023-04-05T10:58:16.056Z,99897.47
2023-04-05T11:00:43.831Z,99890.59
2023-04-05T11:03:10.646Z,99889.66
2023-04-05T11:05:37.845Z,99879.75
2023-04-05T11:08:08.818Z,99880.91
2023-04-05T11:10:37.605Z,99882.00
2023-04-05T11:13:06.230Z,99871.69
2023-04-05T11:15:34.535Z,99866.28
2023-04-05T11:18:08.991Z,99867.75
2023-04-05T11:20:53.093Z,99861.41
2023-04-05T11:23:25.255Z,99866.97
2023-04-05T11:25:54.667Z,99853.00
2023-04-05T11:28:39.446Z,99855.72
2023-04-05T11:31:20.506Z,99858.94
2023-04-05T11:34:12.948Z,99842.47
2023-04-05T11:36:44.259Z,99840.78
2023-04-05T11:39:21.231Z,99845.38
2023-04-05T11:41:54.750Z,99836.19
2023-04-05T11:44:23.621Z,99835.69
2023-04-05T11:46:51.527Z,99823.63
2023-04-05T11:49:18.120Z,99824.28
2023-04-05T11:51:48.621Z,99829.69
2023-04-05T11:54:27.898Z,99821.25
2023-04-05T11:56:54.440Z,99820.66
2023-04-05T11:59:28.729Z,99816.56
2023-04-05T12:02:06.435Z,99823.84
2023-04-05T12:04:33.419Z,99812.75
2023-04-05T12:07:12.234Z,99806.38
2023-04-05T12:10:01.052Z,99800.59
2023-04-05T12:12:28.064Z,99799.75
2023-04-05T12:15:02.318Z,99796.53
2023-04-05T12:17:58.194Z,99800.16
2023-04-05T12:20:26.311Z,99793.75
2023-04-05T12:22:54.368Z,99791.38
2023-04-05T12:25:21.693Z,99789.06
2023-04-05T12:27:48.464Z,99790.25
2023-04-05T12:30:16.578Z,99782.53
2023-04-05T12:32:52.585Z,99782.13
2023-04-05T12:35:25.176Z,99779.50
2023-04-05T12:37:52.243Z,99788.53
2023-04-05T12:40:23.468Z,99778.91
2023-04-05T12:42:50.712Z,99775.34
2023-04-05T12:45:18.540Z,99774.47
2023-04-05T12:48:15.636Z,99772.25
2023-04-05T12:50:44.688Z,99770.38
2023-04-05T12:53:23.817Z,99762.22
2023-04-05T12:55:52.803Z,99766.63
2023-04-05T12:58:20.940Z,99765.22
2023-04-05T13:00:47.488Z,99762.91
2023-04-05T13:03:21.697Z,99755.19
2023-04-05T13:05:49.337Z,99748.78
2023-04-05T13:08:18.404Z,99740.44
2023-04-05T13:10:49.687Z,99734.53
2023-04-05T13:13:17.734Z,99736.53
2023-04-05T13:15:45.760Z,99732.31
2023-04-05T13:18:14.989Z,99729.59
2023-04-05T13:20:45.612Z,99727.97
2023-04-05T13:23:12.916Z,99729.25
2023-04-05T13:25:41.496Z,99720.66
2023-04-05T13:28:09.478Z,99725.53
2023-04-05T13:30:36.088Z,99717.81
2023-04-05T13:33:04.609Z,99713.41
2023-04-05T13:35:32.017Z,99716.97
2023-04-05T13:37:59.618Z,99714.53
2023-04-05T13:40:27.429Z,99713.00
2023-04-05T13:42:53.949Z,99698.00
2023-04-05T13:45:20.531Z,99704.31
2023-04-05T13:47:47.103Z,99697.50
2023-04-05T13:50:13.814Z,99687.19
2023-04-05T13:52:40.523Z,99684.75
2023-04-05T13:55:07.370Z,99692.44
2023-04-05T13:57:33.983Z,99682.09
2023-04-05T14:00:00.793Z,99675.59
2023-04-05T14:02:28.014Z,99673.69
2023-04-05T14:04:54.979Z,99673.38
2023-04-05T14:07:22.483Z,99676.63
2023-04-05T14:09:49.145Z,99670.06
2023-04-05T14:12:15.979Z,99671.69
2023-04-05T14:14:42.560Z,99662.25
2023-04-05T14:17:11.501Z,99663.81
2023-04-05T14:19:38.845Z,99652.34
2023-04-05T14:22:05.592Z,99652.94
2023-04-05T14:24:32.210Z,99653.09
2023-04-05T14:26:58.984Z,99649.22
2023-04-05T14:29:25.992Z,99643.38
2023-04-05T14:31:54.539Z,99646.41
2023-04-05T14:34:21.468Z,99641.03
2023-04-05T14:36:48.172Z,99637.50
2023-04-05T14:39:14.738Z,99638.88
2023-04-05T14:41:41.366Z,99635.63
2023-04-05T14:44:08.000Z,99631.22
2023-04-05T14:46:34.579Z,99629.09
2023-04-05T14:49:01.490Z,99621.16
2023-04-05T14:51:28.237Z,99607.59
2023-04-05T14:53:54.839Z,99601.38
2023-04-05T14:56:21.555Z,99599.41
2023-04-05T14:58:48.156Z,99603.06
2023-04-05T15:01:14.826Z,99600.28
2023-04-05T15:03:41.680Z,99596.50
2023-04-05T15:06:08.826Z,99594.59
2023-04-05T15:08:35.348Z,99592.59
2023-04-05T15:11:02.011Z,99587.72
2023-04-05T15:13:28.777Z,99588.03
2023-04-05T15:15:55.409Z,99591.81
2023-04-05T15:18:22.208Z,99587.31
2023-04-05T15:20:49.418Z,99578.47
2023-04-05T15:23:16.331Z,99579.56
2023-04-05T15:25:42.974Z,99573.78
2023-04-05T15:28:09.538Z,99579.16
2023-04-05T15:30:36.432Z,99577.91
2023-04-05T15:33:03.293Z,99578.47
2023-04-05T15:35:29.969Z,99581.97
2023-04-05T15:37:56.821Z,99571.72
2023-04-05T15:40:23.567Z,99572.06
2023-04-05T15:42:50.153Z,99576.78
2023-04-05T15:45:16.846Z,99572.06
2023-04-05T15:47:43.531Z,99578.06
2023-04-05T15:50:10.262Z,99573.00
2023-04-05T15:52:36.984Z,99571.66
2023-04-05T15:55:04.354Z,99574.53
2023-04-05T15:57:31.023Z,99572.94
2023-04-05T15:59:57.788Z,99575.72
2023-04-05T16:02:25.359Z,99574.06
2023-04-05T16:04:52.219Z,99575.53
2023-04-05T16:07:19.143Z,99563.06
2023-04-05T16:09:46.273Z,99575.50
2023-04-05T16:12:13.059Z,99567.59
2023-04-05T16:14:39.858Z,99561.63
2023-04-05T16:17:06.465Z,99568.25
2023-04-05T16:19:33.487Z,99565.13
2023-04-05T16:22:00.940Z,99561.25
2023-04-05T16:24:28.221Z,99557.66
2023-04-05T16:26:54.809Z,99559.63
2023-04-05T16:29:21.384Z,99558.19
2023-04-05T16:31:48.143Z,99555.69
2023-04-05T16:34:14.867Z,99558.78
2023-04-05T16:36:41.898Z,99555.25
2023-04-05T16:39:08.948Z,99560.72
2023-04-05T16:41:36.314Z,99562.81
2023-04-05T16:44:03.368Z,99564.16
2023-04-05T16:46:32.257Z,99574.94
2023-04-05T16:49:00.357Z,99581.72
2023-04-05T16:51:28.066Z,99580.88
2023-04-05T16:53:55.870Z,99579.97
2023-04-05T16:56:24.380Z,99585.41
2023-04-05T16:58:51.511Z,99588.09
2023-04-05T17:01:18.213Z,99596.22
2023-04-05T17:03:47.075Z,99587.41
2023-04-05T17:06:14.929Z,99589.69
2023-04-05T17:08:41.964Z,99583.56
2023-04-05T17:11:08.610Z,99581.88
2023-04-05T17:13:35.433Z,99585.63
2023-04-05T17:16:02.063Z,99586.13
2023-04-05T17:18:28.828Z,99586.16
2023-04-05T17:20:55.418Z,99584.00
2023-04-05T17:23:22.055Z,99585.75
2023-04-05T17:25:48.644Z,99584.66
2023-04-05T17:28:15.458Z,99591.63
2023-04-05T17:30:42.007Z,99590.75
2023-04-05T17:33:08.608Z,99593.47
2023-04-05T17:35:35.558Z,99592.91
2023-04-05T17:38:03.493Z,99599.22
2023-04-05T17:40:31.163Z,99600.13
2023-04-05T17:42:57.798Z,99598.19
2023-04-05T17:45:24.450Z,99601.47
2023-04-05T17:47:51.412Z,99598.44
2023-04-05T17:50:18.071Z,99595.69
2023-04-05T17:52:44.978Z,99607.56
2023-04-05T17:55:11.557Z,99603.72
2023-04-05T17:57:38.178Z,99603.97
2023-04-05T18:00:05.388Z,99598.19
2023-04-05T18:02:32.570Z,99607.34
2023-04-05T18:04:59.263Z,99598.34
2023-04-05T18:07:27.236Z,99601.78
2023-04-05T18:09:53.914Z,99612.47
2023-04-05T18:12:20.794Z,99619.59
2023-04-05T18:14:47.445Z,99620.31
2023-04-05T18:17:14.126Z,99616.09
2023-04-05T18:19:40.692Z,99625.13
2023-04-05T18:22:07.342Z,99622.81
2023-04-05T18:24:34.054Z,99626.72
2023-04-05T18:27:00.642Z,99624.41
2023-04-05T18:29:30.727Z,99624.78
2023-04-05T18:31:57.572Z,99621.88
2023-04-05T18:34:24.398Z,99629.78
2023-04-05T18:36:51.339Z,99626.34
2023-04-05T18:39:19.659Z,99634.22
2023-04-05T18:41:46.564Z,99626.19
2023-04-05T18:44:13.565Z,99638.06
2023-04-05T18:46:40.288Z,99646.19
2023-04-05T18:49:07.139Z,99640.31
2023-04-05T18:51:33.925Z,99636.59
2023-04-05T18:54:00.667Z,99646.84
2023-04-05T18:56:27.889Z,99649.59
2023-04-05T18:58:54.552Z,99644.22
2023-04-05T19:01:22.340Z,99650.19
2023-04-05T19:03:50.357Z,99650.75
2023-04-05T19:06:17.645Z,99650.78
2023-04-05T19:08:44.286Z,99651.91
2023-04-05T19:11:13.785Z,99662.16
2023-04-05T19:13:43.164Z,99663.81
2023-04-05T19:16:09.841Z,99657.91
2023-04-05T19:18:36.455Z,99655.75
2023-04-05T19:21:03.096Z,99667.63
2023-04-05T19:23:30.372Z,99672.22
2023-04-05T19:25:58.213Z,99660.13
2023-04-05T19:28:26.311Z,99666.56
2023-04-05T19:30:53.998Z,99668.75
2023-04-05T19:33:21.824Z,99674.41
2023-04-05T19:35:48.718Z,99681.94
2023-04-05T19:38:15.484Z,99681.66
2023-04-05T19:40:42.594Z,99676.28
2023-04-05T19:43:10.077Z,99680.34
2023-04-05T19:45:37.169Z,99689.22
2023-04-05T19:48:27.740Z,99699.72
2023-04-05T19:50:56.404Z,99691.34
2023-04-05T19:53:41.385Z,99687.03
2023-04-05T19:56:32.432Z,99698.88
2023-04-05T19:59:11.007Z,99695.94
2023-04-05T20:01:41.638Z,99683.28
2023-04-05T20:04:20.270Z,99692.16
2023-04-05T20:06:57.046Z,99686.53
2023-04-05T20:09:25.858Z,99691.09
2023-04-05T20:11:57.986Z,99679.25
2023-04-05T20:14:41.025Z,99680.31
2023-04-05T20:17:08.330Z,99682.22
2023-04-05T20:19:34.997Z,99690.00
2023-04-05T20:22:05.869Z,99689.19
2023-04-05T20:24:32.576Z,99695.91
2023-04-05T20:26:59.287Z,99691.28
2023-04-05T20:29:28.528Z,99686.69
2023-04-05T20:31:55.473Z,99699.31
2023-04-05T20:34:28.549Z,99695.53
2023-04-05T20:37:01.639Z,99691.75
2023-04-05T20:39:29.213Z,99684.16
2023-04-05T20:41:56.663Z,99684.16
2023-04-05T20:44:24.383Z,99686.84
2023-04-05T20:46:54.678Z,99679.84
2023-04-05T20:49:22.323Z,99672.25
2023-04-05T20:51:50.706Z,99682.44
2023-04-05T20:54:17.848Z,99678.13
2023-04-05T20:56:44.569Z,99676.22
2023-04-05T20:59:11.562Z,99676.97
2023-04-05T21:01:38.715Z,99678.00
2023-04-05T21:04:06.485Z,99676.94
2023-04-05T21:06:34.331Z,99683.59
2023-04-05T21:09:01.268Z,99673.16
2023-04-05T21:11:27.865Z,99672.56
2023-04-05T21:13:54.528Z,99673.09
2023-04-05T21:16:21.305Z,99671.47
2023-04-05T21:18:47.953Z,99670.38
2023-04-05T21:21:14.544Z,99669.28
2023-04-05T21:23:41.200Z,99676.25
2023-04-05T21:26:07.785Z,99665.53
2023-04-05T21:28:34.426Z,99673.03
2023-04-05T21:31:01.044Z,99678.63
2023-04-05T21:33:27.614Z,99670.28
2023-04-05T21:36:34.944Z,99673.44
2023-04-05T21:39:01.491Z,99677.72
2023-04-05T21:41:28.051Z,99672.31
2023-04-05T21:43:54.645Z,99682.50
2023-04-05T21:46:21.466Z,99674.16
2023-04-05T21:48:48.031Z,99679.75
2023-04-05T21:51:14.584Z,99675.19
2023-04-05T21:53:41.140Z,99676.50
2023-04-05T21:56:07.786Z,99674.31
2023-04-05T21:58:34.361Z,99679.94
2023-04-05T22:01:01.463Z,99682.88
2023-04-05T22:03:28.163Z,99685.00
2023-04-05T22:05:54.785Z,99678.53
2023-04-05T22:08:21.318Z,99680.66
2023-04-05T22:10:48.065Z,99676.88
2023-04-05T22:13:14.668Z,99674.69
2023-04-05T22:15:41.311Z,99671.47
2023-04-05T22:18:08.507Z,99676.78
2023-04-05T22:20:35.299Z,99676.47
2023-04-05T22:23:01.835Z,99673.47
2023-04-05T22:25:28.484Z,99679.34
2023-04-05T22:28:00.213Z,99677.75
2023-04-05T22:30:28.884Z,99683.59
2023-04-05T22:32:55.700Z,99681.44
2023-04-05T22:35:22.263Z,99674.97
2023-04-05T22:37:48.831Z,99670.06
2023-04-05T22:40:15.432Z,99675.91
2023-04-05T22:42:42.242Z,99673.50
2023-04-05T22:45:09.844Z,99674.81
2023-04-05T22:47:36.426Z,99669.66
2023-04-05T22:50:03.086Z,99674.72
2023-04-05T22:52:29.624Z,99672.19
2023-04-05T22:54:56.308Z,99671.31
2023-04-05T22:57:22.855Z,99673.69
2023-04-05T22:59:49.395Z,99671.50
2023-04-05T23:02:16.155Z,99671.72
2023-04-05T23:04:42.786Z,99663.88
2023-04-05T23:07:09.361Z,99655.53
2023-04-05T23:09:36.200Z,99663.22
2023-04-05T23:12:02.820Z,99665.09
2023-04-05T23:14:29.414Z,99658.13
2023-04-05T23:16:55.940Z,99658.09
2023-04-05T23:19:22.596Z,99653.47
2023-04-05T23:21:49.206Z,99662.22
2023-04-05T23:24:15.800Z,99650.41
2023-04-05T23:26:42.639Z,99658.13
2023-04-05T23:29:09.366Z,99655.16
2023-04-05T23:31:36.267Z,99652.69
2023-04-05T23:34:02.891Z,99648.69
2023-04-05T23:36:29.454Z,99644.38
2023-04-05T23:38:58.288Z,99647.53
2023-04-05T23:41:24.997Z,99647.78
2023-04-05T23:43:51.926Z,99650.97
2023-04-05T23:46:18.791Z,99640.50
2023-04-05T23:48:45.417Z,99646.91
2023-04-05T23:51:12.007Z,99642.06
2023-04-05T23:53:38.586Z,99639.94
2023-04-05T23:56:06.235Z,99634.28
2023-04-05T23:58:32.939Z,99640.94
